Time;durP1;ratioP1;P1;durP2;ratioP2;P2;SDS_P1;SDS_P2;PMS_P1;PMS_P2;Temp;Humidity;BMP_temperature;BMP_pressure;BME280_temperature;BME280_humidity;BME280_pressure;Samples;Min_cycle;Max_cycle;Signal;HPM_P1;HPM_P2
2022/05/27 00:00:37;;;;;;;;;;;18.90;68.00;;;;;;2013419;28;20008;-74
2022/05/27 00:01:36;;;;;;;;;;;18.90;68.00;;;;;;2013414;28;20237;-74
2022/05/27 00:02:34;;;;;;;;;;;18.90;68.00;;;;;;2013798;28;19955;-74
2022/05/27 00:03:32;;;;;;;;;;;18.90;68.10;;;;;;2013540;28;19948;-74
2022/05/27 00:04:31;;;;;;;;;;;18.90;68.00;;;;;;2013360;28;19940;-74
2022/05/27 00:05:29;;;;;;;;;;;18.90;68.10;;;;;;2014016;28;19905;-74
2022/05/27 00:06:28;;;;;;;;;;;18.80;68.00;;;;;;2013155;28;19912;-74
2022/05/27 00:07:27;;;;;;;;;;;18.90;68.00;;;;;;2013265;28;19948;-74
2022/05/27 00:08:25;;;;;;;;;;;18.90;68.00;;;;;;2013203;28;20362;-74
2022/05/27 00:09:25;;;;;;;;;;;18.90;68.00;;;;;;2013083;28;19909;-75
2022/05/27 00:10:23;;;;;;;;;;;18.90;68.00;;;;;;2013147;28;19958;-74
2022/05/27 00:11:24;;;;;;;;;;;18.90;68.00;;;;;;2013150;28;19913;-74
2022/05/27 00:12:22;;;;;;;;;;;18.90;68.00;;;;;;2013188;28;19952;-74
2022/05/27 00:13:21;;;;;;;;;;;18.90;68.00;;;;;;2012413;28;19967;-74
2022/05/27 00:14:19;;;;;;;;;;;18.90;68.00;;;;;;2004515;28;20349;-74
2022/05/27 00:15:19;;;;;;;;;;;18.80;67.90;;;;;;2011965;28;19987;-74
2022/05/27 00:16:18;;;;;;;;;;;18.90;68.00;;;;;;2011914;28;19995;-73
2022/05/27 00:17:17;;;;;;;;;;;18.90;68.00;;;;;;2012494;28;20382;-74
2022/05/27 00:18:15;;;;;;;;;;;18.90;68.00;;;;;;2013098;28;19920;-74
2022/05/27 00:19:14;;;;;;;;;;;18.80;67.90;;;;;;2012404;28;19905;-74
2022/05/27 00:20:12;;;;;;;;;;;18.80;67.90;;;;;;2012401;28;19974;-74
2022/05/27 00:21:11;;;;;;;;;;;18.90;68.00;;;;;;2012788;28;19909;-74
2022/05/27 00:22:09;;;;;;;;;;;18.90;68.00;;;;;;2013026;28;19999;-74
2022/05/27 00:23:08;;;;;;;;;;;18.90;68.00;;;;;;2012934;28;19968;-74
2022/05/27 00:24:07;;;;;;;;;;;18.90;68.00;;;;;;2012281;28;19905;-74
2022/05/27 00:25:06;;;;;;;;;;;18.90;68.00;;;;;;2012526;28;19991;-75
2022/05/27 00:26:05;;;;;;;;;;;18.80;67.90;;;;;;2011843;28;19938;-73
2022/05/27 00:27:05;;;;;;;;;;;18.80;67.90;;;;;;2004404;28;19905;-75
2022/05/27 00:28:04;;;;;;;;;;;18.80;67.90;;;;;;2012164;28;19905;-75
2022/05/27 00:29:02;;;;;;;;;;;18.80;67.90;;;;;;2012900;28;19956;-74
2022/05/27 00:30:00;;;;;;;;;;;18.80;67.90;;;;;;2012815;28;19909;-74
2022/05/27 00:30:59;;;;;;;;;;;18.80;67.90;;;;;;2012759;28;19909;-73
2022/05/27 00:31:57;;;;;;;;;;;18.80;67.90;;;;;;2012925;28;19905;-74
2022/05/27 00:32:56;;;;;;;;;;;18.80;67.90;;;;;;2012635;28;20000;-74
2022/05/27 00:33:55;;;;;;;;;;;18.80;67.90;;;;;;2012731;28;19913;-74
2022/05/27 00:34:53;;;;;;;;;;;18.80;68.00;;;;;;2012802;28;20003;-75
2022/05/27 00:35:52;;;;;;;;;;;18.90;68.00;;;;;;2012932;28;19905;-74
2022/05/27 00:36:50;;;;;;;;;;;18.80;67.90;;;;;;2012902;28;19905;-74
2022/05/27 00:37:48;;;;;;;;;;;18.80;67.90;;;;;;2012810;28;19999;-74
2022/05/27 00:38:47;;;;;;;;;;;18.80;67.90;;;;;;2012874;28;20303;-74
2022/05/27 00:39:45;;;;;;;;;;;18.80;67.90;;;;;;2012726;28;19959;-74
2022/05/27 00:40:53;;;;;;;;;;;18.80;67.90;;;;;;2012852;28;20382;-74
2022/05/27 00:41:51;;;;;;;;;;;18.80;67.90;;;;;;2012357;28;19947;-74
2022/05/27 00:42:50;;;;;;;;;;;18.90;68.00;;;;;;2012714;28;19985;-74
2022/05/27 00:43:48;;;;;;;;;;;18.80;68.50;;;;;;2012762;28;19905;-74
2022/05/27 00:44:47;;;;;;;;;;;18.80;67.90;;;;;;2012809;28;20216;-74
2022/05/27 00:45:56;;;;;;;;;;;18.80;67.90;;;;;;2012953;28;19905;-74
2022/05/27 00:46:58;;;;;;;;;;;18.80;67.90;;;;;;2012775;28;19908;-74
2022/05/27 00:47:57;;;;;;;;;;;18.80;67.90;;;;;;2012898;28;20268;-74
2022/05/27 00:49:15;;;;;;;;;;;18.80;67.90;;;;;;2012814;28;19905;-74
2022/05/27 00:50:16;;;;;;;;;;;18.80;67.90;;;;;;2019725;28;19991;-73
2022/05/27 00:51:17;;;;;;;;;;;18.80;67.80;;;;;;2019834;28;19985;-73
2022/05/27 00:52:17;;;;;;;;;;;18.80;67.90;;;;;;2019914;28;19915;-73
2022/05/27 00:53:18;;;;;;;;;;;18.80;67.90;;;;;;2019644;28;19935;-73
2022/05/27 00:54:19;;;;;;;;;;;18.80;67.90;;;;;;2019700;28;20003;-73
2022/05/27 00:55:19;;;;;;;;;;;18.80;67.90;;;;;;2019869;28;20353;-73
2022/05/27 00:56:19;;;;;;;;;;;18.80;67.80;;;;;;2019810;28;19920;-73
2022/05/27 00:57:19;;;;;;;;;;;18.80;67.80;;;;;;2019870;28;20409;-74
2022/05/27 00:58:23;;;;;;;;;;;18.80;67.80;;;;;;2019830;28;19905;-73
2022/05/27 00:59:28;;;;;;;;;;;18.80;67.90;;;;;;2020049;28;20007;-74
2022/05/27 01:00:26;;;;;;;;;;;18.80;67.80;;;;;;2019904;28;20243;-74
2022/05/27 01:01:26;;;;;;;;;;;18.80;67.80;;;;;;2019770;28;19970;-73
2022/05/27 01:02:25;;;;;;;;;;;18.80;67.80;;;;;;2019847;28;20020;-74
2022/05/27 01:03:25;;;;;;;;;;;18.80;67.80;;;;;;2019842;28;19936;-74
2022/05/27 01:04:23;;;;;;;;;;;18.80;67.80;;;;;;2019884;28;19913;-73
2022/05/27 01:05:23;;;;;;;;;;;18.90;67.90;;;;;;2019553;28;19948;-74
2022/05/27 01:06:21;;;;;;;;;;;18.80;67.80;;;;;;2019643;28;19940;-74
2022/05/27 01:07:20;;;;;;;;;;;18.80;67.80;;;;;;2019704;28;19905;-74
2022/05/27 01:08:19;;;;;;;;;;;18.80;67.80;;;;;;2019918;28;19945;-74
2022/05/27 01:09:18;;;;;;;;;;;18.80;67.80;;;;;;2019752;28;19908;-74
2022/05/27 01:10:18;;;;;;;;;;;18.80;67.80;;;;;;2019705;28;19955;-73
2022/05/27 01:11:17;;;;;;;;;;;18.80;67.80;;;;;;2019816;28;19911;-73
2022/05/27 01:12:53;;;;;;;;;;;18.80;67.80;;;;;;2011579;28;19906;-74
2022/05/27 01:14:00;;;;;;;;;;;18.80;67.80;;;;;;1980456;29;20005;-73
2022/05/27 01:15:14;;;;;;;;;;;18.80;67.80;;;;;;1980609;29;19907;-74
2022/05/27 01:16:13;;;;;;;;;;;18.80;67.80;;;;;;1980726;29;19912;-73
2022/05/27 01:17:14;;;;;;;;;;;18.80;67.80;;;;;;1980386;29;19913;-74
2022/05/27 01:18:12;;;;;;;;;;;18.80;67.80;;;;;;1980606;29;20005;-73
2022/05/27 01:21:00;;;;;;;;;;;18.80;67.80;;;;;;2019732;28;20334;-74
2022/05/27 01:22:28;;;;;;;;;;;18.80;67.80;;;;;;2016104;28;19928;-74
2022/05/27 01:23:45;;;;;;;;;;;18.80;67.80;;;;;;2003785;28;20317;-73
2022/05/27 01:24:52;;;;;;;;;;;18.80;67.80;;;;;;2004753;28;19925;-74
2022/05/27 01:25:51;;;;;;;;;;;18.80;67.80;;;;;;2012809;28;20324;-73
2022/05/27 01:27:01;;;;;;;;;;;18.80;67.80;;;;;;2012600;28;19905;-74
2022/05/27 01:28:09;;;;;;;;;;;18.80;67.80;;;;;;2012674;28;19912;-73
2022/05/27 01:29:31;;;;;;;;;;;18.80;67.80;;;;;;2011910;28;19912;-73
2022/05/27 01:30:35;;;;;;;;;;;18.80;67.80;;;;;;2012287;28;19912;-74
2022/05/27 01:31:34;;;;;;;;;;;18.80;67.80;;;;;;2011902;28;19915;-73
2022/05/27 01:32:52;;;;;;;;;;;18.80;67.80;;;;;;2011706;28;19924;-73
2022/05/27 01:34:00;;;;;;;;;;;18.80;67.80;;;;;;2008546;28;19909;-73
2022/05/27 01:35:07;;;;;;;;;;;18.80;67.80;;;;;;2012699;28;19911;-73
2022/05/27 01:36:05;;;;;;;;;;;18.80;67.70;;;;;;2011980;28;19908;-73
2022/05/27 01:37:09;;;;;;;;;;;18.80;67.80;;;;;;2012105;28;20348;-73
2022/05/27 01:38:12;;;;;;;;;;;18.80;67.80;;;;;;2012396;28;20317;-74
2022/05/27 01:39:15;;;;;;;;;;;18.80;67.80;;;;;;2011842;28;19955;-73
2022/05/27 01:40:39;;;;;;;;;;;18.80;67.80;;;;;;2012007;28;19909;-73
2022/05/27 01:41:38;;;;;;;;;;;18.80;67.80;;;;;;2012662;28;19901;-74
2022/05/27 01:42:49;;;;;;;;;;;18.80;67.70;;;;;;2012660;28;19983;-74
2022/05/27 01:43:50;;;;;;;;;;;18.80;67.80;;;;;;2012674;28;20367;-74
2022/05/27 01:44:53;;;;;;;;;;;18.80;67.70;;;;;;2012696;28;19947;-73
2022/05/27 01:45:56;;;;;;;;;;;18.80;67.80;;;;;;2011818;28;20406;-73
2022/05/27 01:46:54;;;;;;;;;;;18.80;67.70;;;;;;2012020;28;20339;-73
2022/05/27 01:47:58;;;;;;;;;;;18.80;67.70;;;;;;2011731;28;19928;-74
2022/05/27 01:49:15;;;;;;;;;;;18.80;67.70;;;;;;2011957;28;20219;-73
2022/05/27 01:50:20;;;;;;;;;;;18.80;67.70;;;;;;2018066;28;19923;-73
2022/05/27 01:51:28;;;;;;;;;;;18.80;67.70;;;;;;2011840;28;19959;-73
2022/05/27 01:52:34;;;;;;;;;;;18.80;67.70;;;;;;2011993;28;19916;-74
2022/05/27 01:53:39;;;;;;;;;;;18.80;67.70;;;;;;2012553;28;20000;-73
2022/05/27 01:54:56;;;;;;;;;;;18.80;67.70;;;;;;2013971;28;20414;-74
2022/05/27 01:56:00;;;;;;;;;;;18.80;67.70;;;;;;2013429;28;19959;-73
2022/05/27 01:57:02;;;;;;;;;;;18.80;67.70;;;;;;2013626;28;19936;-74
2022/05/27 01:58:00;;;;;;;;;;;18.80;67.70;;;;;;2013920;28;19909;-73
2022/05/27 01:59:01;;;;;;;;;;;18.80;67.70;;;;;;2013336;28;19905;-74
2022/05/27 02:00:03;;;;;;;;;;;18.80;67.70;;;;;;2005372;28;20257;-73
2022/05/27 02:01:03;;;;;;;;;;;18.80;67.70;;;;;;2013059;28;19908;-73
2022/05/27 02:02:08;;;;;;;;;;;18.80;67.70;;;;;;2013227;28;19953;-74
2022/05/27 02:03:13;;;;;;;;;;;18.80;67.70;;;;;;2013398;28;19939;-73
2022/05/27 02:04:31;;;;;;;;;;;18.80;67.70;;;;;;2014121;28;19908;-74
2022/05/27 02:05:33;;;;;;;;;;;18.80;67.70;;;;;;2014011;28;19905;-73
2022/05/27 02:06:38;;;;;;;;;;;18.80;67.70;;;;;;2013841;28;19905;-73
2022/05/27 02:07:47;;;;;;;;;;;18.80;67.70;;;;;;2013888;28;19912;-73
2022/05/27 02:08:48;;;;;;;;;;;18.80;67.70;;;;;;2014174;28;19985;-73
2022/05/27 02:09:52;;;;;;;;;;;18.80;67.70;;;;;;2014104;28;19905;-73
2022/05/27 02:10:59;;;;;;;;;;;18.80;67.70;;;;;;2013953;28;19905;-73
2022/05/27 02:12:02;;;;;;;;;;;18.80;67.70;;;;;;2013953;28;19905;-73
2022/05/27 02:13:04;;;;;;;;;;;18.80;67.70;;;;;;2013915;28;19916;-73
2022/05/27 02:14:04;;;;;;;;;;;18.80;67.70;;;;;;2013984;28;19928;-74
2022/05/27 02:15:10;;;;;;;;;;;18.80;68.30;;;;;;2013850;28;19967;-73
2022/05/27 02:16:12;;;;;;;;;;;18.80;67.70;;;;;;2013959;28;19905;-73
2022/05/27 02:17:13;;;;;;;;;;;18.80;67.70;;;;;;2013929;28;20236;-73
2022/05/27 02:18:27;;;;;;;;;;;18.80;67.70;;;;;;2013862;28;19927;-73
2022/05/27 02:19:52;;;;;;;;;;;18.80;67.60;;;;;;2013163;28;19905;-73
2022/05/27 02:21:00;;;;;;;;;;;18.80;67.60;;;;;;2012287;28;19905;-73
2022/05/27 02:22:01;;;;;;;;;;;18.80;67.60;;;;;;2013892;28;19905;-73
2022/05/27 02:23:21;;;;;;;;;;;18.80;67.60;;;;;;2013674;28;20344;-73
2022/05/27 02:24:26;;;;;;;;;;;18.80;67.60;;;;;;2013764;28;19905;-73
2022/05/27 02:25:30;;;;;;;;;;;18.80;67.60;;;;;;2013917;28;20034;-73
2022/05/27 02:26:31;;;;;;;;;;;18.80;67.60;;;;;;2014066;28;20047;-73
2022/05/27 02:27:33;;;;;;;;;;;18.80;67.60;;;;;;2013146;28;20411;-73
2022/05/27 02:28:36;;;;;;;;;;;18.80;67.60;;;;;;2013405;28;19952;-73
2022/05/27 02:29:35;;;;;;;;;;;18.80;67.60;;;;;;2013219;28;19905;-73
2022/05/27 02:30:35;;;;;;;;;;;18.80;67.60;;;;;;2013149;28;19911;-73
2022/05/27 02:31:36;;;;;;;;;;;18.80;67.60;;;;;;2013763;28;19905;-73
2022/05/27 02:35:37;;;;;;;;;;;18.80;67.60;;;;;;2013856;28;19909;-73
2022/05/27 02:36:42;;;;;;;;;;;18.80;67.50;;;;;;2013569;28;20431;-73
2022/05/27 02:37:43;;;;;;;;;;;18.80;67.50;;;;;;2013759;28;19964;-74
2022/05/27 02:38:42;;;;;;;;;;;18.80;67.50;;;;;;2013734;28;20008;-73
2022/05/27 02:39:40;;;;;;;;;;;18.80;67.60;;;;;;2013846;28;19951;-73
2022/05/27 02:40:44;;;;;;;;;;;18.80;67.50;;;;;;2013949;28;19917;-73
2022/05/27 02:41:49;;;;;;;;;;;18.80;67.50;;;;;;2013645;28;19955;-73
2022/05/27 02:42:48;;;;;;;;;;;18.80;67.50;;;;;;2013712;28;19951;-73
2022/05/27 02:43:47;;;;;;;;;;;18.70;67.40;;;;;;2013781;28;19944;-73
2022/05/27 02:44:57;;;;;;;;;;;18.80;67.50;;;;;;2013769;28;20318;-73
2022/05/27 02:46:07;;;;;;;;;;;18.70;67.40;;;;;;2013824;28;20008;-73
2022/05/27 02:47:25;;;;;;;;;;;18.70;67.40;;;;;;2013054;28;19999;-73
2022/05/27 02:48:42;;;;;;;;;;;18.80;67.50;;;;;;2013247;28;20414;-73
2022/05/27 02:49:59;;;;;;;;;;;18.70;67.40;;;;;;2013826;28;19905;-73
2022/05/27 02:50:57;;;;;;;;;;;18.70;67.40;;;;;;2013205;28;20036;-73
2022/05/27 02:52:02;;;;;;;;;;;18.70;67.40;;;;;;2013224;28;20000;-73
2022/05/27 02:53:19;;;;;;;;;;;18.80;67.50;;;;;;2013137;28;19916;-73
2022/05/27 02:54:18;;;;;;;;;;;18.70;67.40;;;;;;2013580;28;20417;-73
2022/05/27 02:55:20;;;;;;;;;;;18.70;67.40;;;;;;2013940;28;20007;-73
2022/05/27 02:56:19;;;;;;;;;;;18.70;67.40;;;;;;2014094;28;19956;-73
2022/05/27 02:57:27;;;;;;;;;;;18.70;67.40;;;;;;2013929;28;19987;-73
2022/05/27 02:58:27;;;;;;;;;;;18.70;67.30;;;;;;2014189;28;19910;-73
2022/05/27 02:59:26;;;;;;;;;;;18.70;67.30;;;;;;2013771;28;19948;-74
2022/05/27 03:00:27;;;;;;;;;;;18.70;67.30;;;;;;2013764;28;19909;-73
2022/05/27 03:01:25;;;;;;;;;;;18.70;67.30;;;;;;2013702;28;20019;-74
2022/05/27 03:02:24;;;;;;;;;;;18.70;67.30;;;;;;2013648;28;19912;-73
2022/05/27 03:03:23;;;;;;;;;;;18.70;67.30;;;;;;2013561;28;20396;-73
2022/05/27 03:04:21;;;;;;;;;;;18.70;67.30;;;;;;2013570;28;19912;-73
2022/05/27 03:05:23;;;;;;;;;;;18.70;67.30;;;;;;2013104;28;19905;-73
2022/05/27 03:06:29;;;;;;;;;;;18.70;67.30;;;;;;2013360;28;19945;-73
2022/05/27 03:07:33;;;;;;;;;;;18.70;67.20;;;;;;2013516;28;20348;-74
2022/05/27 03:08:45;;;;;;;;;;;18.70;67.30;;;;;;2013616;28;19917;-73
2022/05/27 03:09:53;;;;;;;;;;;18.70;67.20;;;;;;2013256;28;20012;-74
2022/05/27 03:10:57;;;;;;;;;;;18.70;67.20;;;;;;2012992;28;19905;-73
2022/05/27 03:12:08;;;;;;;;;;;18.70;67.20;;;;;;2013645;28;19912;-73
2022/05/27 03:13:16;;;;;;;;;;;18.70;67.20;;;;;;2013580;28;19909;-74
2022/05/27 03:14:33;;;;;;;;;;;18.70;67.20;;;;;;2013739;28;19932;-73
2022/05/27 03:15:43;;;;;;;;;;;18.70;67.20;;;;;;2013624;28;19920;-73
2022/05/27 03:16:55;;;;;;;;;;;18.70;67.20;;;;;;2013446;28;19909;-73
2022/05/27 03:17:54;;;;;;;;;;;18.70;67.20;;;;;;2013503;28;19905;-73
2022/05/27 03:19:01;;;;;;;;;;;18.70;67.20;;;;;;2013608;28;19932;-73
2022/05/27 03:20:00;;;;;;;;;;;18.70;67.20;;;;;;2012707;28;19911;-74
2022/05/27 03:21:01;;;;;;;;;;;18.70;67.20;;;;;;2012792;28;20013;-73
2022/05/27 03:22:05;;;;;;;;;;;18.70;67.10;;;;;;2013536;28;19915;-73
2022/05/27 03:23:09;;;;;;;;;;;18.70;67.20;;;;;;2013541;28;19904;-73
2022/05/27 03:24:15;;;;;;;;;;;18.70;67.10;;;;;;2013565;28;20330;-73
2022/05/27 03:25:36;;;;;;;;;;;18.70;67.10;;;;;;2013219;28;20350;-73
2022/05/27 03:26:44;;;;;;;;;;;18.70;67.10;;;;;;2007346;28;20261;-73
2022/05/27 03:27:51;;;;;;;;;;;18.70;67.10;;;;;;2012797;28;19971;-73
2022/05/27 03:29:13;;;;;;;;;;;18.70;67.10;;;;;;2013439;28;19955;-73
2022/05/27 03:30:19;;;;;;;;;;;18.70;67.10;;;;;;2012686;28;20054;-74
2022/05/27 03:31:25;;;;;;;;;;;18.70;67.10;;;;;;2005248;28;19906;-73
2022/05/27 03:32:36;;;;;;;;;;;18.70;67.10;;;;;;2012681;28;19921;-73
2022/05/27 03:33:37;;;;;;;;;;;18.70;67.10;;;;;;2013374;28;19905;-73
2022/05/27 03:34:45;;;;;;;;;;;18.70;67.10;;;;;;2013638;28;19924;-73
2022/05/27 03:35:48;;;;;;;;;;;18.70;67.10;;;;;;2013536;28;20231;-73
2022/05/27 03:36:53;;;;;;;;;;;18.70;67.00;;;;;;2013431;28;19913;-73
2022/05/27 03:38:05;;;;;;;;;;;18.70;67.10;;;;;;2013358;28;19905;-72
2022/05/27 03:39:09;;;;;;;;;;;18.70;67.00;;;;;;2013506;28;19955;-73
2022/05/27 03:40:14;;;;;;;;;;;18.70;67.10;;;;;;2013290;28;20011;-73
2022/05/27 03:41:15;;;;;;;;;;;18.70;67.00;;;;;;2013364;28;19905;-73
2022/05/27 03:42:15;;;;;;;;;;;18.70;67.00;;;;;;2013385;28;19912;-73
2022/05/27 03:43:14;;;;;;;;;;;18.70;67.10;;;;;;2013250;28;19912;-73
2022/05/27 03:44:16;;;;;;;;;;;18.60;66.90;;;;;;2013327;28;19952;-74
2022/05/27 03:45:16;;;;;;;;;;;18.70;67.00;;;;;;2013266;28;19948;-73
2022/05/27 03:46:25;;;;;;;;;;;18.70;67.00;;;;;;2013247;28;19909;-73
2022/05/27 03:47:24;;;;;;;;;;;18.70;66.90;;;;;;2012706;28;19939;-73
2022/05/27 03:48:23;;;;;;;;;;;18.70;67.00;;;;;;2012720;28;19998;-73
2022/05/27 03:49:22;;;;;;;;;;;18.70;66.90;;;;;;2013294;28;20312;-73
2022/05/27 03:50:22;;;;;;;;;;;18.70;67.00;;;;;;2013229;28;19952;-73
2022/05/27 03:51:23;;;;;;;;;;;18.70;67.00;;;;;;2013389;28;20309;-73
2022/05/27 03:52:24;;;;;;;;;;;18.70;66.90;;;;;;2012472;28;19905;-74
2022/05/27 03:54:03;;;;;;;;;;;18.70;66.90;;;;;;2012764;28;20490;-72
2022/05/27 03:54:40;;;;;;;;;;;18.70;66.90;;;;;;2013189;28;19912;-73
2022/05/27 03:55:44;;;;;;;;;;;18.70;66.90;;;;;;2013205;28;19909;-73
2022/05/27 03:56:43;;;;;;;;;;;18.70;66.90;;;;;;2013268;28;19950;-73
2022/05/27 03:57:41;;;;;;;;;;;18.70;66.90;;;;;;2012515;28;19909;-73
2022/05/27 03:58:40;;;;;;;;;;;18.70;66.90;;;;;;2012435;28;19927;-73
2022/05/27 03:59:38;;;;;;;;;;;18.70;66.90;;;;;;2013182;28;19948;-72
2022/05/27 04:00:37;;;;;;;;;;;18.70;66.90;;;;;;2013181;28;19939;-72
2022/05/27 04:01:36;;;;;;;;;;;18.70;66.90;;;;;;2013177;28;19905;-73
2022/05/27 04:02:36;;;;;;;;;;;18.60;66.70;;;;;;2013263;28;19905;-73
2022/05/27 04:03:34;;;;;;;;;;;18.70;66.80;;;;;;2013306;28;19904;-73
2022/05/27 04:04:33;;;;;;;;;;;18.70;66.90;;;;;;2012441;28;19945;-73
2022/05/27 04:05:31;;;;;;;;;;;18.70;66.80;;;;;;2012550;28;19952;-72
2022/05/27 04:06:30;;;;;;;;;;;18.60;66.70;;;;;;2013044;28;19905;-73
2022/05/27 04:07:28;;;;;;;;;;;18.70;66.80;;;;;;2013141;28;19975;-73
2022/05/27 04:08:27;;;;;;;;;;;18.70;66.80;;;;;;2013176;28;19940;-72
2022/05/27 04:09:25;;;;;;;;;;;18.70;66.80;;;;;;2013073;28;19909;-73
2022/05/27 04:10:24;;;;;;;;;;;18.60;66.60;;;;;;2013014;28;19908;-73
2022/05/27 04:11:22;;;;;;;;;;;18.60;66.70;;;;;;2012956;28;19912;-73
2022/05/27 04:12:21;;;;;;;;;;;18.70;66.70;;;;;;2013047;28;19977;-73
2022/05/27 04:13:19;;;;;;;;;;;18.60;66.60;;;;;;2013279;28;19987;-73
2022/05/27 04:14:18;;;;;;;;;;;18.60;66.60;;;;;;2012363;28;19905;-73
2022/05/27 04:15:17;;;;;;;;;;;18.70;66.70;;;;;;2012419;28;19948;-73
2022/05/27 04:16:15;;;;;;;;;;;18.70;66.70;;;;;;2012833;28;19908;-72
2022/05/27 04:17:31;;;;;;;;;;;18.60;66.50;;;;;;2012483;28;19912;-72
2022/05/27 04:18:30;;;;;;;;;;;18.70;66.60;;;;;;2013124;28;20268;-73
2022/05/27 04:19:29;;;;;;;;;;;18.60;66.50;;;;;;2013044;28;19905;-73
2022/05/27 04:20:27;;;;;;;;;;;18.70;66.60;;;;;;2013027;28;20283;-73
2022/05/27 04:21:26;;;;;;;;;;;18.70;66.60;;;;;;2013058;28;20401;-73
2022/05/27 04:22:25;;;;;;;;;;;18.70;66.70;;;;;;2012996;28;19909;-73
2022/05/27 04:23:23;;;;;;;;;;;18.60;66.50;;;;;;2012242;28;19912;-73
2022/05/27 04:24:22;;;;;;;;;;;18.70;66.60;;;;;;2012333;28;20344;-73
2022/05/27 04:25:20;;;;;;;;;;;18.70;66.60;;;;;;2013025;28;20039;-73
2022/05/27 04:26:19;;;;;;;;;;;18.70;66.60;;;;;;2013136;28;19905;-72
2022/05/27 04:27:18;;;;;;;;;;;18.70;66.60;;;;;;2013088;28;20423;-73
2022/05/27 04:28:17;;;;;;;;;;;18.70;66.60;;;;;;2013011;28;19991;-73
2022/05/27 04:29:15;;;;;;;;;;;18.70;66.60;;;;;;2012905;28;19926;-73
2022/05/27 04:30:14;;;;;;;;;;;18.60;66.50;;;;;;2013031;28;19999;-73
2022/05/27 04:31:13;;;;;;;;;;;18.60;66.50;;;;;;2012965;28;19905;-73
2022/05/27 04:32:11;;;;;;;;;;;18.60;66.50;;;;;;2012082;28;19951;-73
2022/05/27 04:33:10;;;;;;;;;;;18.60;66.50;;;;;;2012394;28;20050;-74
2022/05/27 04:34:10;;;;;;;;;;;18.60;66.40;;;;;;2012910;28;20257;-73
2022/05/27 04:35:09;;;;;;;;;;;18.70;66.50;;;;;;2013019;28;20267;-73
2022/05/27 04:36:08;;;;;;;;;;;18.60;66.40;;;;;;2012916;28;19912;-73
2022/05/27 04:37:07;;;;;;;;;;;18.70;66.50;;;;;;2012975;28;20368;-74
2022/05/27 04:38:05;;;;;;;;;;;18.60;67.00;;;;;;2020156;28;19913;-74
2022/05/27 04:39:04;;;;;;;;;;;18.60;66.40;;;;;;2020405;28;19972;-74
2022/05/27 04:40:03;;;;;;;;;;;18.70;66.50;;;;;;2013427;28;20220;-74
2022/05/27 04:41:01;;;;;;;;;;;18.60;66.40;;;;;;2012926;28;20055;-74
2022/05/27 04:42:00;;;;;;;;;;;18.60;66.30;;;;;;2012896;28;19905;-74
2022/05/27 04:42:58;;;;;;;;;;;18.60;66.30;;;;;;2012765;28;19905;-74
2022/05/27 04:43:58;;;;;;;;;;;18.60;66.30;;;;;;2012881;28;19960;-74
2022/05/27 04:44:57;;;;;;;;;;;18.60;66.30;;;;;;2012744;28;19905;-74
2022/05/27 04:45:55;;;;;;;;;;;18.60;66.30;;;;;;2013040;28;19996;-74
2022/05/27 04:46:54;;;;;;;;;;;18.60;66.30;;;;;;2012949;28;19996;-74
2022/05/27 04:47:52;;;;;;;;;;;18.60;66.20;;;;;;2012854;28;20004;-74
2022/05/27 04:48:51;;;;;;;;;;;18.60;66.30;;;;;;2012164;28;19953;-74
2022/05/27 04:49:53;;;;;;;;;;;18.60;66.20;;;;;;2004349;28;20348;-74
2022/05/27 04:50:51;;;;;;;;;;;18.60;66.20;;;;;;2012178;28;20352;-74
2022/05/27 04:51:51;;;;;;;;;;;18.60;66.20;;;;;;2012813;28;19927;-73
2022/05/27 04:52:49;;;;;;;;;;;18.60;66.20;;;;;;2012731;28;19956;-74
2022/05/27 04:53:47;;;;;;;;;;;18.60;66.20;;;;;;2012862;28;19906;-73
2022/05/27 04:54:46;;;;;;;;;;;18.60;66.20;;;;;;2012762;28;20311;-74
2022/05/27 04:55:45;;;;;;;;;;;18.60;66.20;;;;;;2012955;28;19916;-73
2022/05/27 04:56:43;;;;;;;;;;;18.60;66.20;;;;;;2012817;28;19912;-73
2022/05/27 04:57:44;;;;;;;;;;;18.60;66.10;;;;;;2013049;28;19905;-73
2022/05/27 04:58:42;;;;;;;;;;;18.60;66.10;;;;;;2012792;28;19905;-73
2022/05/27 04:59:41;;;;;;;;;;;18.60;66.10;;;;;;2012966;28;19905;-73
2022/05/27 05:00:44;;;;;;;;;;;18.60;66.10;;;;;;2012652;28;20002;-73
2022/05/27 05:01:42;;;;;;;;;;;18.60;66.10;;;;;;2012694;28;20419;-74
2022/05/27 05:02:42;;;;;;;;;;;18.60;66.10;;;;;;2012096;28;19905;-73
2022/05/27 05:03:41;;;;;;;;;;;18.60;66.10;;;;;;2012269;28;19913;-74
2022/05/27 05:04:39;;;;;;;;;;;18.60;66.10;;;;;;2012644;28;19948;-73
2022/05/27 05:05:38;;;;;;;;;;;18.60;66.00;;;;;;2012795;28;20006;-73
2022/05/27 05:06:37;;;;;;;;;;;18.60;66.10;;;;;;2012573;28;19990;-73
2022/05/27 05:07:37;;;;;;;;;;;18.60;66.00;;;;;;2012006;28;20096;-74
2022/05/27 05:08:38;;;;;;;;;;;18.60;66.00;;;;;;2004128;28;20005;-73
2022/05/27 05:09:38;;;;;;;;;;;18.60;66.00;;;;;;2012056;28;19905;-73
2022/05/27 05:10:36;;;;;;;;;;;18.60;66.00;;;;;;2012153;28;19928;-73
2022/05/27 05:11:35;;;;;;;;;;;18.60;66.00;;;;;;2012657;28;19909;-73
2022/05/27 05:12:34;;;;;;;;;;;18.60;66.00;;;;;;2012508;28;19909;-73
2022/05/27 05:13:33;;;;;;;;;;;18.60;66.00;;;;;;2012565;28;19905;-73
2022/05/27 05:14:32;;;;;;;;;;;18.60;65.90;;;;;;2012502;28;19912;-73
2022/05/27 05:15:30;;;;;;;;;;;18.60;65.90;;;;;;2012560;28;20272;-73
2022/05/27 05:16:30;;;;;;;;;;;18.60;65.90;;;;;;2011935;28;20101;-73
2022/05/27 05:17:28;;;;;;;;;;;18.60;65.80;;;;;;2012005;28;19905;-73
2022/05/27 05:18:27;;;;;;;;;;;18.60;65.80;;;;;;2012579;28;20264;-74
2022/05/27 05:19:25;;;;;;;;;;;18.60;65.90;;;;;;2012568;28;19912;-73
2022/05/27 05:20:26;;;;;;;;;;;18.60;65.80;;;;;;2012508;28;19909;-73
2022/05/27 05:21:24;;;;;;;;;;;18.60;65.80;;;;;;2012502;28;19905;-73
2022/05/27 05:22:23;;;;;;;;;;;18.60;65.80;;;;;;2012657;28;20321;-74
2022/05/27 05:23:21;;;;;;;;;;;18.60;65.80;;;;;;2012615;28;20348;-74
2022/05/27 05:24:20;;;;;;;;;;;18.60;65.70;;;;;;2012709;28;19905;-73
2022/05/27 05:25:18;;;;;;;;;;;18.60;65.70;;;;;;2012596;28;19940;-73
2022/05/27 05:26:17;;;;;;;;;;;18.70;65.80;;;;;;2012664;28;19988;-73
2022/05/27 05:27:15;;;;;;;;;;;18.70;65.80;;;;;;2012464;28;19958;-73
2022/05/27 05:28:14;;;;;;;;;;;18.70;65.80;;;;;;2011664;28;19905;-74
2022/05/27 05:29:12;;;;;;;;;;;18.70;65.80;;;;;;2011885;28;20064;-74
2022/05/27 05:30:13;;;;;;;;;;;18.70;65.80;;;;;;2011129;28;19947;-73
2022/05/27 05:31:16;;;;;;;;;;;18.70;65.70;;;;;;2011826;28;19905;-73
2022/05/27 05:32:14;;;;;;;;;;;18.70;65.70;;;;;;2012279;28;19959;-73
2022/05/27 05:33:13;;;;;;;;;;;18.70;65.70;;;;;;2012643;28;20019;-74
2022/05/27 05:34:11;;;;;;;;;;;18.70;65.60;;;;;;2012499;28;20037;-73
2022/05/27 05:35:11;;;;;;;;;;;18.70;65.60;;;;;;2012572;28;19905;-73
2022/05/27 05:36:10;;;;;;;;;;;18.70;65.60;;;;;;2012650;28;20316;-73
2022/05/27 05:37:09;;;;;;;;;;;18.70;65.60;;;;;;2012555;28;19905;-73
2022/05/27 05:38:07;;;;;;;;;;;18.70;65.60;;;;;;2012471;28;19906;-73
2022/05/27 05:39:06;;;;;;;;;;;18.70;65.60;;;;;;2012490;28;19912;-73
2022/05/27 05:40:05;;;;;;;;;;;18.70;65.50;;;;;;2012380;28;19913;-74
2022/05/27 05:41:04;;;;;;;;;;;18.70;65.50;;;;;;2012374;28;20004;-74
2022/05/27 05:42:04;;;;;;;;;;;18.70;65.50;;;;;;2011799;28;19905;-73
2022/05/27 05:43:02;;;;;;;;;;;18.60;65.30;;;;;;2011925;28;20275;-73
2022/05/27 05:44:01;;;;;;;;;;;18.70;65.40;;;;;;2012429;28;19905;-73
2022/05/27 05:45:00;;;;;;;;;;;18.70;65.40;;;;;;2012563;28;19911;-74
2022/05/27 05:45:59;;;;;;;;;;;18.70;65.40;;;;;;2012500;28;19905;-73
2022/05/27 05:46:58;;;;;;;;;;;18.70;65.30;;;;;;2012581;28;20011;-73
2022/05/27 05:47:56;;;;;;;;;;;18.70;65.30;;;;;;2011748;28;19995;-74
2022/05/27 05:48:55;;;;;;;;;;;18.60;65.20;;;;;;2003945;28;19916;-75
2022/05/27 05:49:53;;;;;;;;;;;18.70;65.30;;;;;;2011379;28;20264;-74
2022/05/27 05:50:51;;;;;;;;;;;18.60;65.10;;;;;;2012428;28;19905;-74
2022/05/27 05:51:51;;;;;;;;;;;18.70;65.20;;;;;;2012528;28;19959;-74
2022/05/27 05:52:50;;;;;;;;;;;18.70;65.10;;;;;;2012437;28;19946;-74
2022/05/27 05:53:48;;;;;;;;;;;18.70;65.10;;;;;;2012440;28;19996;-75
2022/05/27 05:54:47;;;;;;;;;;;18.70;65.10;;;;;;2011699;28;19951;-74
2022/05/27 05:55:46;;;;;;;;;;;18.70;65.10;;;;;;2011752;28;19995;-74
2022/05/27 05:56:44;;;;;;;;;;;18.70;65.00;;;;;;2012364;28;20364;-74
2022/05/27 05:57:45;;;;;;;;;;;18.70;65.00;;;;;;2012687;28;19912;-74
2022/05/27 05:58:44;;;;;;;;;;;18.70;64.90;;;;;;2012585;28;19905;-74
2022/05/27 05:59:42;;;;;;;;;;;18.70;64.90;;;;;;2012501;28;20240;-73
2022/05/27 06:00:41;;;;;;;;;;;18.60;64.80;;;;;;2012593;28;20007;-74
2022/05/27 06:01:39;;;;;;;;;;;18.60;64.70;;;;;;2012419;28;20407;-74
2022/05/27 06:02:38;;;;;;;;;;;18.60;64.70;;;;;;2012077;28;19905;-74
2022/05/27 06:03:36;;;;;;;;;;;18.70;64.80;;;;;;2011943;28;19905;-73
2022/05/27 06:04:35;;;;;;;;;;;18.70;64.80;;;;;;2012510;28;19916;-74